Terminal Aerodrome Forecast
Issued by NWS Milwaukee/Sullivan, WI

Home | Current Version | Previous Version | Text Only | Print | Product List | Glossary On
Versions: 1 2 3 4 5 6 7 8 9 10 11 12 13 14 15 16 17 18 19 20 21 22 23 24 25 26 27 28 29 30 31 32 33 34 35 36 37 38 39 40
000
FTUS43 KMKX 251149
TAFMSN
TAF
KMSN 251149Z 2512/2612 22007KT P6SM VCSH SCT050 SCT150 BKN250
     FM251700 19009KT P6SM SCT120 BKN250
     FM252200 18008KT P6SM VCTS SCT040CB BKN070
     FM260300 18007KT P6SM -SHRA BKN050
     FM260500 18006KT P6SM SCT015 OVC035
     FM260700 24005KT P6SM OVC015=

USA.gov is the U.S. government's official web portal to all federal, state and local government web resources and services.